Time;durP1;ratioP1;P1;durP2;ratioP2;P2;SDS_P1;SDS_P2;PMS_P1;PMS_P2;Temp;Humidity;BMP_temperature;BMP_pressure;BME280_temperature;BME280_humidity;BME280_pressure;Samples;Min_cycle;Max_cycle;Signal;HPM_P1;HPM_P2
2021/12/03 00:01:29;;;;;;;48.50;32.90;;;1.50;99.90;;;;;;2609442;54;20254;-75
2021/12/03 00:03:56;;;;;;;49.37;33.03;;;1.60;99.90;;;;;;2609426;54;20390;-75
2021/12/03 00:06:22;;;;;;;45.77;31.23;;;1.50;99.90;;;;;;2608635;54;20446;-75
2021/12/03 00:08:48;;;;;;;49.07;32.27;;;1.60;99.90;;;;;;2609474;54;20410;-76
2021/12/03 00:11:17;;;;;;;45.97;30.80;;;1.60;99.90;;;;;;2610243;39;20940;-74
2021/12/03 00:13:43;;;;;;;40.40;28.17;;;1.60;99.90;;;;;;2609675;54;20449;-74
2021/12/03 00:16:10;;;;;;;51.43;33.97;;;1.50;99.90;;;;;;2609750;54;21069;-75
2021/12/03 00:18:36;;;;;;;48.17;29.97;;;1.60;99.90;;;;;;2612264;39;21264;-75
2021/12/03 00:21:04;;;;;;;45.80;30.27;;;1.50;99.90;;;;;;2611982;54;20420;-75
2021/12/03 00:23:31;;;;;;;38.97;29.23;;;1.50;99.90;;;;;;2607928;54;20458;-75
2021/12/03 00:26:00;;;;;;;35.83;28.40;;;1.70;99.90;;;;;;2610982;54;20981;-74
2021/12/03 00:28:27;;;;;;;43.73;29.60;;;1.50;99.90;;;;;;2607593;54;20408;-75
2021/12/03 00:30:53;;;;;;;35.10;28.50;;;1.40;99.90;;;;;;2610021;54;21571;-75
2021/12/03 00:33:19;;;;;;;36.37;25.50;;;1.30;99.90;;;;;;2609645;54;20404;-74
2021/12/03 00:35:44;;;;;;;35.03;27.00;;;1.40;99.90;;;;;;2609622;54;20714;-75
2021/12/03 00:38:10;;;;;;;32.47;28.37;;;1.40;99.90;;;;;;2613050;54;20824;-75
2021/12/03 00:40:39;;;;;;;32.70;26.83;;;1.30;99.90;;;;;;2610606;47;20428;-75
2021/12/03 00:43:07;;;;;;;36.00;27.00;;;1.40;99.90;;;;;;2609136;54;20962;-74
2021/12/03 00:45:33;;;;;;;34.30;26.70;;;1.40;99.90;;;;;;2610405;47;20940;-75
2021/12/03 00:48:00;;;;;;;31.80;25.70;;;1.20;99.90;;;;;;2610980;54;20443;-75
2021/12/03 00:50:27;;;;;;;33.30;27.07;;;1.20;99.90;;;;;;2610924;54;21006;-74
2021/12/03 00:52:53;;;;;;;31.33;25.80;;;1.30;99.90;;;;;;2610394;54;20406;-74
2021/12/03 00:55:20;;;;;;;39.20;28.30;;;1.30;99.90;;;;;;2611760;39;20930;-75
2021/12/03 00:57:46;;;;;;;35.50;25.30;;;1.30;99.90;;;;;;2612192;54;20427;-74
2021/12/03 01:00:24;;;;;;;38.47;28.50;;;1.20;99.90;;;;;;2610414;51;20433;-74
2021/12/03 01:02:51;;;;;;;35.40;23.90;;;1.20;99.90;;;;;;2611795;54;20410;-76
2021/12/03 01:05:17;;;;;;;37.73;28.90;;;1.10;99.90;;;;;;2610674;54;20495;-75
2021/12/03 01:07:43;;;;;;;33.33;22.27;;;1.20;99.90;;;;;;2610530;54;20413;-75
2021/12/03 01:10:09;;;;;;;32.37;26.27;;;1.10;99.90;;;;;;2609344;54;20981;-74
2021/12/03 01:12:37;;;;;;;34.57;26.77;;;1.10;99.90;;;;;;2611297;54;20981;-75
2021/12/03 01:15:08;;;;;;;34.03;24.73;;;1.20;99.90;;;;;;2612135;47;20395;-75
2021/12/03 01:17:33;;;;;;;38.77;28.47;;;1.30;99.90;;;;;;2613664;54;20430;-75
2021/12/03 01:20:04;;;;;;;37.27;28.50;;;1.30;99.90;;;;;;2612855;54;20923;-76
2021/12/03 01:22:30;;;;;;;33.83;26.63;;;1.20;99.90;;;;;;2614564;54;20193;-75
2021/12/03 01:24:56;;;;;;;36.83;27.90;;;1.30;99.90;;;;;;2612124;54;20458;-74
2021/12/03 01:27:21;;;;;;;27.17;22.90;;;1.40;99.90;;;;;;2614854;39;20496;-74
2021/12/03 01:29:47;;;;;;;37.60;26.20;;;1.40;99.90;;;;;;2613052;54;20265;-74
2021/12/03 01:32:14;;;;;;;38.97;27.03;;;1.50;99.90;;;;;;2614218;54;20241;-74
2021/12/03 01:34:40;;;;;;;40.43;29.30;;;1.60;99.90;;;;;;2613409;47;20175;-75
2021/12/03 01:37:06;;;;;;;41.90;29.93;;;1.60;99.90;;;;;;2614118;54;20959;-75
2021/12/03 01:39:32;;;;;;;45.93;32.50;;;1.60;99.90;;;;;;2613025;47;20146;-77
2021/12/03 01:41:58;;;;;;;48.93;31.77;;;1.80;99.90;;;;;;2613797;54;20995;-75
2021/12/03 01:44:24;;;;;;;48.43;33.10;;;1.90;99.90;;;;;;2613306;54;20484;-74
2021/12/03 01:46:50;;;;;;;41.70;32.10;;;1.80;99.90;;;;;;2613925;54;20155;-75
2021/12/03 01:49:15;;;;;;;44.93;32.27;;;1.80;99.90;;;;;;2613312;54;20145;-75
2021/12/03 01:51:42;;;;;;;52.13;31.37;;;1.80;99.90;;;;;;2613086;54;20698;-75
2021/12/03 01:54:08;;;;;;;44.63;27.63;;;1.80;99.90;;;;;;2612667;54;20185;-75
2021/12/03 01:56:37;;;;;;;41.90;25.50;;;1.70;99.90;;;;;;2613602;54;20427;-75
2021/12/03 01:59:03;;;;;;;49.10;31.10;;;1.70;99.90;;;;;;2613122;54;20934;-75
2021/12/03 02:01:29;;;;;;;53.80;31.93;;;1.70;99.90;;;;;;2613533;54;20821;-75
2021/12/03 02:04:00;;;;;;;44.33;31.80;;;1.70;99.90;;;;;;2613923;47;20527;-75
2021/12/03 02:06:27;;;;;;;43.47;28.67;;;1.80;99.90;;;;;;2614801;54;20423;-75
2021/12/03 02:08:54;;;;;;;48.97;32.90;;;1.80;99.90;;;;;;2613585;54;20982;-75
2021/12/03 02:11:21;;;;;;;51.37;33.90;;;2.10;99.90;;;;;;2612076;54;20418;-75
2021/12/03 02:13:50;;;;;;;61.37;34.90;;;2.10;99.90;;;;;;2614781;54;20412;-74
2021/12/03 02:16:17;;;;;;;48.77;32.73;;;2.20;99.90;;;;;;2614140;54;20433;-75
2021/12/03 02:18:43;;;;;;;22.33;15.27;;;2.20;99.90;;;;;;2614456;54;20434;-73
2021/12/03 02:21:10;;;;;;;50.37;32.23;;;2.20;99.90;;;;;;2615121;54;20415;-75
2021/12/03 02:23:37;;;;;;;47.80;28.10;;;2.00;99.90;;;;;;2614681;54;21014;-74
2021/12/03 02:26:04;;;;;;;53.77;33.23;;;2.10;99.90;;;;;;2612495;46;20454;-75
2021/12/03 02:28:33;;;;;;;42.40;27.93;;;2.10;99.90;;;;;;2613782;54;20975;-76
2021/12/03 02:30:59;;;;;;;44.90;30.47;;;2.20;99.90;;;;;;2614438;54;20406;-76
2021/12/03 02:33:25;;;;;;;54.93;32.20;;;2.10;99.90;;;;;;2614435;54;20502;-76
2021/12/03 02:35:52;;;;;;;52.50;32.97;;;2.20;99.90;;;;;;2614324;47;20170;-76
2021/12/03 02:38:22;;;;;;;58.53;35.77;;;2.10;99.90;;;;;;2613822;50;20417;-76
2021/12/03 02:40:50;;;;;;;51.80;33.57;;;2.10;99.90;;;;;;2614280;54;20431;-74
2021/12/03 02:43:17;;;;;;;42.77;27.63;;;2.30;99.90;;;;;;2614078;54;20416;-75
2021/12/03 02:45:43;;;;;;;52.50;31.60;;;2.30;99.90;;;;;;2614240;54;20977;-75
2021/12/03 02:48:09;;;;;;;49.60;31.43;;;2.30;99.90;;;;;;2613197;54;20402;-75
2021/12/03 02:50:35;;;;;;;53.23;32.00;;;2.40;99.90;;;;;;2613868;54;20414;-75
2021/12/03 02:53:01;;;;;;;45.00;25.20;;;2.30;99.90;;;;;;2614985;39;20944;-74
2021/12/03 02:55:27;;;;;;;47.03;31.40;;;2.30;99.90;;;;;;2614620;54;20998;-74
2021/12/03 02:57:53;;;;;;;63.13;31.07;;;2.30;99.90;;;;;;2614109;54;20435;-75
2021/12/03 03:00:22;;;;;;;50.90;31.90;;;2.40;99.90;;;;;;2613476;54;20435;-75
2021/12/03 03:02:48;;;;;;;48.53;32.20;;;2.40;99.90;;;;;;2614307;54;20171;-75
2021/12/03 03:05:16;;;;;;;54.43;32.03;;;2.40;99.90;;;;;;2613401;54;20462;-74
2021/12/03 03:07:42;;;;;;;49.03;27.77;;;2.20;99.90;;;;;;2614596;54;20435;-76
2021/12/03 03:10:10;;;;;;;43.67;25.53;;;2.30;99.90;;;;;;2614821;54;20490;-75
2021/12/03 03:12:37;;;;;;;45.83;24.60;;;2.30;99.90;;;;;;2615215;54;20518;-75
2021/12/03 03:15:05;;;;;;;47.63;32.03;;;2.20;99.90;;;;;;2615310;54;20387;-75
2021/12/03 03:17:32;;;;;;;56.27;31.10;;;2.20;99.90;;;;;;2614324;39;20917;-75
2021/12/03 03:19:59;;;;;;;47.27;25.33;;;2.20;99.90;;;;;;2613956;54;20407;-74
2021/12/03 03:22:26;;;;;;;28.07;17.13;;;2.20;99.90;;;;;;2615489;54;20438;-75
2021/12/03 03:24:53;;;;;;;38.80;19.60;;;2.10;99.90;;;;;;2613575;51;20395;-75
2021/12/03 03:27:21;;;;;;;45.47;27.03;;;2.10;99.90;;;;;;2614744;54;20458;-74
2021/12/03 03:29:48;;;;;;;35.80;20.30;;;2.10;99.90;;;;;;2614562;54;20450;-75
2021/12/03 03:32:16;;;;;;;56.27;33.93;;;2.00;99.90;;;;;;2615251;54;20431;-74
2021/12/03 03:34:42;;;;;;;50.93;28.37;;;2.00;99.90;;;;;;2613885;54;20424;-75
2021/12/03 03:37:08;;;;;;;53.40;30.60;;;2.00;99.90;;;;;;2614492;54;20439;-75
2021/12/03 03:39:34;;;;;;;60.43;31.60;;;2.10;99.90;;;;;;2612797;54;20561;-74
2021/12/03 03:42:01;;;;;;;54.00;31.10;;;2.20;99.90;;;;;;2615387;54;20419;-74
2021/12/03 03:44:27;;;;;;;59.23;33.60;;;2.30;99.90;;;;;;2614300;39;20602;-74
2021/12/03 03:46:55;;;;;;;48.83;22.83;;;2.20;99.90;;;;;;2615496;54;20467;-74
2021/12/03 03:49:22;;;;;;;47.77;27.13;;;2.30;99.90;;;;;;2613014;31;20894;-74
2021/12/03 03:51:50;;;;;;;42.60;20.37;;;2.20;99.90;;;;;;2614842;54;20410;-75
2021/12/03 03:54:15;;;;;;;32.47;16.60;;;2.20;99.90;;;;;;2615112;54;20382;-74
2021/12/03 03:56:42;;;;;;;45.07;28.57;;;2.10;99.90;;;;;;2613778;47;20418;-75
2021/12/03 03:59:08;;;;;;;45.53;26.30;;;2.20;99.90;;;;;;2614329;54;20170;-75
2021/12/03 04:01:34;;;;;;;33.33;19.33;;;2.20;99.90;;;;;;2615148;54;20431;-75
2021/12/03 04:04:01;;;;;;;38.60;21.50;;;2.20;99.90;;;;;;2614861;54;20424;-75
2021/12/03 04:06:26;;;;;;;53.03;25.60;;;2.20;99.90;;;;;;2615886;39;20625;-74
2021/12/03 04:08:52;;;;;;;50.70;19.10;;;2.20;99.90;;;;;;2613389;54;20399;-74
2021/12/03 04:11:21;;;;;;;57.93;28.93;;;2.10;99.90;;;;;;2614930;54;20262;-74
2021/12/03 04:13:47;;;;;;;48.40;23.90;;;2.10;99.90;;;;;;2614770;51;20166;-75
2021/12/03 04:16:14;;;;;;;48.97;26.23;;;2.10;99.90;;;;;;2612986;54;21326;-74
2021/12/03 04:18:40;;;;;;;27.17;16.23;;;2.20;99.90;;;;;;2614563;54;20979;-74
2021/12/03 04:21:06;;;;;;;32.50;19.07;;;2.30;99.90;;;;;;2613465;54;20414;-74
2021/12/03 04:23:32;;;;;;;32.40;20.20;;;2.20;99.90;;;;;;2613771;54;20161;-74
2021/12/03 04:25:58;;;;;;;50.43;23.90;;;2.30;99.90;;;;;;2614149;54;20179;-75
2021/12/03 04:28:24;;;;;;;32.80;20.27;;;2.40;99.90;;;;;;2614925;54;20951;-74
2021/12/03 04:30:51;;;;;;;56.50;27.43;;;2.40;99.90;;;;;;2614336;54;20157;-73
2021/12/03 04:33:17;;;;;;;44.10;20.70;;;2.50;99.90;;;;;;2613946;47;20411;-74
2021/12/03 04:35:43;;;;;;;49.00;29.20;;;2.50;99.90;;;;;;2614420;54;20424;-74
2021/12/03 04:38:09;;;;;;;43.10;24.70;;;2.40;99.90;;;;;;2615067;39;20852;-74
2021/12/03 04:40:36;;;;;;;55.83;27.50;;;2.40;99.90;;;;;;2613066;54;20526;-74
2021/12/03 04:43:03;;;;;;;29.83;18.27;;;2.50;99.90;;;;;;2613477;54;20406;-74
2021/12/03 04:45:30;;;;;;;34.13;15.47;;;2.40;99.90;;;;;;2614388;54;21074;-74
2021/12/03 04:47:58;;;;;;;43.87;23.60;;;2.40;99.90;;;;;;2614959;54;20425;-74
2021/12/03 04:50:29;;;;;;;43.20;24.93;;;2.50;99.90;;;;;;2614105;54;20416;-74
2021/12/03 04:52:57;;;;;;;33.13;20.50;;;2.50;99.90;;;;;;2615128;54;20439;-74
2021/12/03 04:55:24;;;;;;;32.50;21.17;;;2.50;99.90;;;;;;2614848;54;20491;-75
2021/12/03 04:57:53;;;;;;;56.83;26.20;;;2.60;99.90;;;;;;2615507;39;20834;-74
2021/12/03 05:00:41;;;;;;;45.67;20.80;;;2.70;99.90;;;;;;2613689;47;20411;-74
2021/12/03 05:03:08;;;;;;;32.73;17.10;;;2.80;99.90;;;;;;2614721;54;20399;-75
2021/12/03 05:05:34;;;;;;;30.17;17.87;;;2.60;99.90;;;;;;2614044;54;20940;-74
2021/12/03 05:08:04;;;;;;;34.60;20.20;;;2.60;99.90;;;;;;2615400;54;20426;-74
2021/12/03 05:10:33;;;;;;;35.93;21.33;;;2.60;99.90;;;;;;2614440;54;20446;-75
2021/12/03 05:13:06;;;;;;;35.83;20.67;;;2.50;99.90;;;;;;2615487;54;20980;-75
2021/12/03 05:15:34;;;;;;;19.47;13.03;;;2.60;99.90;;;;;;2614666;54;20411;-75
2021/12/03 05:18:00;;;;;;;25.80;15.90;;;2.60;99.90;;;;;;2615472;54;20408;-74
2021/12/03 05:20:26;;;;;;;31.70;19.13;;;2.60;99.90;;;;;;2612945;54;20983;-75
2021/12/03 05:22:54;;;;;;;41.93;20.27;;;2.70;99.90;;;;;;2613559;54;21087;-75
2021/12/03 05:25:21;;;;;;;30.03;18.10;;;2.70;99.90;;;;;;2614946;54;20567;-75
2021/12/03 05:27:48;;;;;;;26.97;15.03;;;2.70;99.90;;;;;;2615007;54;20420;-75
2021/12/03 05:30:14;;;;;;;32.80;20.10;;;2.70;99.90;;;;;;2614593;39;20856;-74
2021/12/03 05:32:40;;;;;;;30.90;18.93;;;2.80;99.90;;;;;;2614273;54;20456;-74
2021/12/03 05:35:07;;;;;;;35.77;20.27;;;2.80;99.90;;;;;;2614516;46;20285;-75
2021/12/03 05:37:34;;;;;;;38.70;19.53;;;2.80;99.90;;;;;;2613934;54;20436;-76
2021/12/03 05:39:59;;;;;;;38.50;16.60;;;2.60;99.90;;;;;;2614433;54;20482;-75
2021/12/03 05:42:26;;;;;;;18.40;13.20;;;2.80;99.90;;;;;;2614682;54;20943;-74
2021/12/03 05:44:53;;;;;;;28.77;18.27;;;2.80;99.90;;;;;;2614240;54;20246;-74
2021/12/03 05:47:19;;;;;;;18.13;12.40;;;2.80;99.90;;;;;;2614940;54;20407;-76
2021/12/03 05:49:45;;;;;;;19.93;14.33;;;2.90;99.90;;;;;;2613926;54;20991;-76
2021/12/03 05:52:10;;;;;;;24.07;14.70;;;2.80;99.90;;;;;;2613603;54;20135;-75
2021/12/03 05:54:36;;;;;;;29.47;18.13;;;2.90;99.90;;;;;;2612559;54;20690;-75
2021/12/03 05:57:02;;;;;;;26.80;15.57;;;2.90;99.90;;;;;;2614815;54;20674;-75
2021/12/03 05:59:28;;;;;;;17.83;11.83;;;3.00;99.90;;;;;;2613667;54;20697;-75
2021/12/03 06:01:54;;;;;;;27.60;14.40;;;3.00;99.90;;;;;;2612789;54;20418;-74
2021/12/03 06:04:20;;;;;;;29.20;16.40;;;2.90;99.90;;;;;;2614315;54;20246;-75
2021/12/03 06:06:45;;;;;;;22.87;12.70;;;2.90;99.90;;;;;;2614937;54;20162;-75
2021/12/03 06:09:11;;;;;;;22.63;12.07;;;3.00;99.90;;;;;;2613606;47;20210;-75
2021/12/03 06:11:38;;;;;;;27.80;15.00;;;3.00;99.90;;;;;;2614279;54;20246;-74
2021/12/03 06:14:04;;;;;;;23.07;13.90;;;3.00;99.90;;;;;;2612403;54;20174;-74
2021/12/03 06:16:29;;;;;;;27.63;16.97;;;3.10;99.90;;;;;;2613355;47;20415;-75
2021/12/03 06:18:55;;;;;;;34.00;14.03;;;3.00;99.90;;;;;;2612989;54;20506;-75
2021/12/03 06:21:21;;;;;;;30.60;15.73;;;3.00;99.90;;;;;;2613087;54;20678;-75
2021/12/03 06:23:48;;;;;;;28.07;18.03;;;3.00;99.90;;;;;;2613789;39;20821;-74
2021/12/03 06:26:13;;;;;;;29.70;18.60;;;3.00;99.90;;;;;;2612516;54;20953;-74
2021/12/03 06:28:40;;;;;;;21.57;12.17;;;2.90;99.90;;;;;;2612893;54;20440;-74
2021/12/03 06:31:07;;;;;;;21.97;14.67;;;2.90;99.90;;;;;;2613762;54;20466;-78
2021/12/03 06:33:34;;;;;;;21.40;13.70;;;2.90;99.90;;;;;;2613052;54;20552;-74
2021/12/03 06:36:00;;;;;;;25.20;16.83;;;2.90;99.90;;;;;;2611014;54;20970;-74
2021/12/03 06:38:26;;;;;;;25.00;13.33;;;2.90;99.90;;;;;;2611062;54;20395;-75
2021/12/03 06:40:53;;;;;;;21.70;12.70;;;3.00;99.90;;;;;;2610380;54;20185;-75
2021/12/03 06:43:19;;;;;;;30.57;17.33;;;3.10;99.90;;;;;;2611958;54;20416;-74
2021/12/03 06:45:46;;;;;;;33.57;17.00;;;3.00;99.90;;;;;;2610469;54;20969;-74
2021/12/03 06:48:13;;;;;;;30.90;15.60;;;3.00;99.90;;;;;;2612953;54;20426;-75
2021/12/03 06:50:39;;;;;;;24.80;15.00;;;3.00;99.90;;;;;;2612359;54;20422;-75
2021/12/03 06:53:08;;;;;;;37.63;17.67;;;3.00;99.90;;;;;;2614183;54;20415;-75
2021/12/03 06:55:48;;;;;;;26.50;16.70;;;3.00;99.90;;;;;;2611781;54;20424;-74
2021/12/03 06:58:15;;;;;;;29.30;15.80;;;3.00;99.90;;;;;;2610905;54;20419;-76
2021/12/03 07:00:43;;;;;;;32.23;19.10;;;3.10;99.90;;;;;;2611927;54;20411;-76
2021/12/03 07:03:09;;;;;;;34.40;18.67;;;3.20;99.90;;;;;;2613063;54;20383;-75
2021/12/03 07:05:35;;;;;;;20.83;13.90;;;3.20;99.90;;;;;;2612778;54;20430;-76
2021/12/03 07:08:01;;;;;;;26.63;14.40;;;3.30;99.90;;;;;;2612119;54;20143;-76
2021/12/03 07:10:27;;;;;;;30.80;19.70;;;3.20;99.90;;;;;;2610075;39;20523;-75
2021/12/03 07:12:53;;;;;;;37.37;19.70;;;3.30;99.90;;;;;;2609390;54;20491;-75
2021/12/03 07:15:19;;;;;;;25.17;15.93;;;3.20;99.90;;;;;;2609547;54;20435;-76
2021/12/03 07:17:49;;;;;;;34.30;20.77;;;3.20;99.90;;;;;;2610995;54;20621;-74
2021/12/03 07:20:15;;;;;;;32.50;16.67;;;3.30;99.90;;;;;;2611690;54;20379;-76
2021/12/03 07:22:41;;;;;;;47.80;20.53;;;3.30;99.90;;;;;;2611467;54;20407;-74
2021/12/03 07:25:08;;;;;;;15.40;9.43;;;3.30;99.90;;;;;;2610046;46;20419;-75
2021/12/03 07:27:34;;;;;;;29.70;15.20;;;3.30;99.90;;;;;;2610677;39;20476;-76
2021/12/03 07:30:00;;;;;;;29.93;15.97;;;3.40;99.90;;;;;;2609302;39;21106;-76
2021/12/03 07:32:27;;;;;;;27.23;14.50;;;3.40;99.90;;;;;;2609980;47;20435;-74
2021/12/03 07:34:53;;;;;;;28.40;17.27;;;3.40;99.90;;;;;;2610312;54;20456;-76
2021/12/03 07:37:19;;;;;;;26.57;15.67;;;3.40;99.90;;;;;;2611693;54;20434;-75
2021/12/03 07:39:45;;;;;;;36.57;19.43;;;3.50;99.90;;;;;;2610992;54;20162;-74
2021/12/03 07:42:11;;;;;;;35.13;17.43;;;3.50;99.90;;;;;;2611719;39;20579;-75
2021/12/03 07:44:37;;;;;;;44.53;19.30;;;3.60;99.90;;;;;;2609685;54;20471;-74
2021/12/03 07:47:03;;;;;;;39.63;17.43;;;3.50;99.90;;;;;;2611736;54;20150;-75
2021/12/03 07:49:29;;;;;;;18.57;11.37;;;3.60;99.90;;;;;;2612391;54;21070;-76
2021/12/03 07:51:56;;;;;;;32.40;17.23;;;3.60;99.90;;;;;;2610593;54;20443;-74
2021/12/03 07:54:22;;;;;;;40.13;19.30;;;3.60;99.90;;;;;;2611073;54;20425;-77
2021/12/03 07:56:48;;;;;;;31.20;18.47;;;3.60;99.90;;;;;;2610306;54;20490;-76
2021/12/03 07:59:14;;;;;;;51.87;19.83;;;3.70;99.90;;;;;;2609521;54;20477;-75
2021/12/03 08:01:45;;;;;;;28.23;16.87;;;3.80;99.90;;;;;;2610165;54;20490;-74
2021/12/03 08:04:12;;;;;;;20.57;13.90;;;4.00;99.90;;;;;;2610494;54;20165;-75
2021/12/03 08:06:39;;;;;;;32.83;19.37;;;3.90;99.90;;;;;;2610070;47;20419;-75
2021/12/03 08:09:10;;;;;;;22.30;12.77;;;3.90;99.90;;;;;;2609578;54;20419;-75
2021/12/03 08:11:38;;;;;;;28.07;15.13;;;3.80;99.90;;;;;;2609566;54;20418;-75
2021/12/03 08:14:04;;;;;;;65.07;33.20;;;3.80;99.90;;;;;;2610501;54;20952;-75
2021/12/03 08:16:30;;;;;;;20.37;13.30;;;3.80;99.90;;;;;;2610435;54;20999;-75
2021/12/03 08:18:56;;;;;;;27.00;17.57;;;3.90;99.90;;;;;;2609856;54;20494;-75
2021/12/03 08:21:21;;;;;;;21.17;14.07;;;3.90;99.90;;;;;;2611016;54;20512;-77
2021/12/03 08:23:48;;;;;;;31.43;17.00;;;3.90;99.90;;;;;;2613292;52;20419;-76
2021/12/03 08:26:16;;;;;;;30.63;15.47;;;3.90;99.90;;;;;;2612959;54;20266;-79
2021/12/03 08:28:41;;;;;;;12.90;6.40;;;3.90;99.90;;;;;;2613193;54;20414;-76
2021/12/03 08:31:11;;;;;;;30.00;7.20;;;3.90;99.90;;;;;;2611132;54;20382;-76
2021/12/03 08:33:38;;;;;;;13.23;8.60;;;4.00;99.90;;;;;;2609586;54;20162;-76
2021/12/03 08:36:04;;;;;;;29.23;11.97;;;4.00;99.90;;;;;;2610508;47;20425;-76
2021/12/03 08:38:30;;;;;;;15.40;11.27;;;3.90;99.90;;;;;;2611315;54;21004;-76
2021/12/03 08:40:56;;;;;;;9.13;6.33;;;3.90;99.90;;;;;;2612453;54;20427;-76
2021/12/03 08:43:22;;;;;;;17.53;8.90;;;3.90;99.90;;;;;;2612651;54;20436;-75
2021/12/03 08:45:53;;;;;;;21.20;6.40;;;4.10;99.90;;;;;;2612567;54;20495;-76
2021/12/03 08:48:19;;;;;;;10.00;5.87;;;4.00;99.90;;;;;;2612701;54;20173;-76
2021/12/03 08:51:09;;;;;;;9.07;5.77;;;4.00;99.90;;;;;;2610190;47;20419;-75
2021/12/03 08:56:19;;;;;;;13.30;7.20;;;4.10;99.90;;;;;;2610425;54;21030;-75
2021/12/03 08:58:46;;;;;;;16.73;8.97;;;4.10;99.90;;;;;;2612946;54;20407;-75
2021/12/03 09:01:13;;;;;;;12.13;7.13;;;4.20;99.90;;;;;;2607647;54;20146;-76
2021/12/03 09:03:40;;;;;;;16.53;6.43;;;4.40;99.90;;;;;;2612581;39;20898;-76
2021/12/03 09:06:05;;;;;;;16.03;7.63;;;4.40;99.90;;;;;;2611815;47;20474;-74
2021/12/03 09:08:31;;;;;;;10.33;6.10;;;4.40;99.90;;;;;;2610231;54;20399;-74
2021/12/03 09:10:57;;;;;;;17.47;8.23;;;4.20;99.90;;;;;;2612508;54;20238;-75
2021/12/03 09:13:23;;;;;;;12.00;7.57;;;4.20;99.90;;;;;;2611233;54;20403;-75
2021/12/03 09:16:03;;;;;;;18.10;9.17;;;4.30;99.90;;;;;;2612951;54;20419;-75
2021/12/03 09:18:31;;;;;;;9.17;7.07;;;4.40;99.90;;;;;;2608711;54;20420;-74
2021/12/03 09:26:05;;;;;;;7.50;5.53;;;4.50;99.90;;;;;;2613296;54;20197;-75
2021/12/03 09:28:31;;;;;;;12.10;7.10;;;4.60;99.90;;;;;;2613088;54;20423;-75
2021/12/03 09:30:57;;;;;;;8.57;4.33;;;4.60;99.90;;;;;;2611998;47;20427;-76
2021/12/03 09:33:27;;;;;;;13.10;7.30;;;4.50;99.90;;;;;;2612017;47;20438;-75
2021/12/03 09:35:56;;;;;;;20.50;7.83;;;4.40;99.90;;;;;;2613103;39;20831;-76
2021/12/03 09:38:24;;;;;;;15.87;5.97;;;4.60;99.90;;;;;;2612862;39;20796;-76
2021/12/03 09:40:50;;;;;;;20.17;7.50;;;4.60;99.90;;;;;;2609984;54;20503;-74
2021/12/03 09:43:16;;;;;;;11.20;4.63;;;4.70;99.90;;;;;;2611239;54;20427;-75
2021/12/03 09:45:54;;;;;;;12.27;5.77;;;4.70;99.90;;;;;;2611110;54;20461;-75
2021/12/03 09:48:36;;;;;;;14.23;5.17;;;4.60;99.90;;;;;;2611222;54;20670;-74
2021/12/03 09:51:03;;;;;;;4.67;4.07;;;4.50;99.90;;;;;;2612520;54;20398;-74
2021/12/03 09:53:54;;;;;;;8.53;5.83;;;4.50;99.90;;;;;;2611403;54;20531;-74
2021/12/03 09:56:14;;;;;;;13.83;5.83;;;4.50;99.90;;;;;;2613703;31;20878;-74
2021/12/03 09:59:17;;;;;;;5.30;3.77;;;4.50;99.90;;;;;;2611919;54;20424;-74
2021/12/03 10:18:52;;;;;;;6.43;4.50;;;4.80;99.90;;;;;;2610428;54;20427;-75
2021/12/03 10:56:44;;;;;;;5.30;3.43;;;4.80;99.90;;;;;;2646496;36;20434;-75
2021/12/03 11:03:43;;;;;;;11.60;4.73;;;4.80;99.90;;;;;;2625742;36;20543;-72
2021/12/03 11:38:52;;;;;;;6.83;4.00;;;4.80;99.90;;;;;;2605027;47;20488;-73
2021/12/03 11:53:27;;;;;;;9.50;4.60;;;5.00;99.90;;;;;;2607663;54;20422;-72
2021/12/03 12:15:32;;;;;;;7.93;4.10;;;5.30;99.90;;;;;;2605049;54;21141;-72
2021/12/03 12:30:14;;;;;;;13.83;5.43;;;5.50;99.90;;;;;;2606894;54;20420;-72
2021/12/03 13:11:06;;;;;;;9.20;4.67;;;5.70;99.90;;;;;;2606862;54;21444;-73
2021/12/03 14:39:52;;;;;;;14.50;4.57;;;5.50;99.90;;;;;;2606210;54;20415;-73
2021/12/03 14:45:23;;;;;;;4.40;4.10;;;5.60;99.90;;;;;;2607194;54;20430;-74
2021/12/03 14:48:08;;;;;;;5.93;4.30;;;5.60;99.90;;;;;;2607327;54;20975;-73
2021/12/03 14:53:18;;;;;;;3.60;3.30;;;5.50;99.90;;;;;;2610490;54;20977;-72
2021/12/03 14:55:56;;;;;;;4.40;3.60;;;5.40;99.90;;;;;;2610361;31;20859;-72
2021/12/03 14:58:29;;;;;;;8.50;4.83;;;5.20;99.90;;;;;;2610689;54;20438;-72
2021/12/03 15:01:02;;;;;;;5.20;4.70;;;5.10;99.90;;;;;;2609013;54;20455;-71
2021/12/03 15:27:15;;;;;;;5.40;4.60;;;4.30;99.90;;;;;;2641659;36;20229;-72
2021/12/03 15:37:47;;;;;;;8.17;7.37;;;4.30;99.90;;;;;;2610497;54;20483;-72
2021/12/03 15:56:41;;;;;;;13.53;5.53;;;3.90;99.90;;;;;;2608915;54;20433;-71
2021/12/03 16:04:44;;;;;;;6.30;5.37;;;3.80;99.90;;;;;;2609536;54;20426;-71
2021/12/03 16:07:19;;;;;;;9.17;5.97;;;3.80;99.90;;;;;;2611849;54;20395;-71
2021/12/03 16:15:25;;;;;;;7.47;6.40;;;3.80;99.90;;;;;;2611275;39;20784;-72
2021/12/03 16:23:49;;;;;;;7.67;6.10;;;3.80;99.90;;;;;;2612263;54;20430;-72
2021/12/03 16:26:32;;;;;;;9.40;7.33;;;3.80;99.90;;;;;;2610564;54;20392;-70
2021/12/03 16:53:27;;;;;;;7.40;6.70;;;3.90;99.90;;;;;;2608109;47;20410;-72
2021/12/03 16:55:59;;;;;;;7.67;6.50;;;3.80;99.90;;;;;;2609149;54;20419;-71
2021/12/03 16:58:26;;;;;;;17.60;9.33;;;3.90;99.90;;;;;;2609552;47;20431;-71
2021/12/03 17:01:01;;;;;;;10.63;9.53;;;3.90;99.90;;;;;;2608340;54;20477;-72
2021/12/03 17:03:40;;;;;;;8.30;7.43;;;3.90;99.90;;;;;;2606562;54;20402;-72
2021/12/03 17:17:11;;;;;;;8.47;6.53;;;3.90;99.90;;;;;;2609092;54;20166;-73
2021/12/03 17:59:48;;;;;;;9.20;6.10;;;3.90;99.90;;;;;;2612023;54;20423;-71
2021/12/03 18:07:44;;;;;;;8.57;7.07;;;4.00;99.90;;;;;;2611083;54;20427;-69
2021/12/03 18:18:18;;;;;;;11.43;7.60;;;4.00;99.90;;;;;;2611079;54;20419;-70
2021/12/03 18:56:14;;;;;;;8.90;5.57;;;4.00;99.90;;;;;;2611219;39;20962;-69
2021/12/03 18:58:32;;;;;;;8.23;6.73;;;4.00;99.90;;;;;;2612736;54;20534;-70
2021/12/03 19:00:59;;;;;;;10.60;8.20;;;4.00;99.90;;;;;;2610898;54;20570;-70
2021/12/03 19:06:18;;;;;;;7.10;6.40;;;4.10;99.90;;;;;;2613501;54;20407;-70
2021/12/03 19:09:04;;;;;;;8.80;7.67;;;4.10;99.90;;;;;;2611016;54;20402;-70
2021/12/03 19:13:59;;;;;;;15.77;9.00;;;4.10;99.90;;;;;;2612628;54;20406;-70
2021/12/03 19:16:26;;;;;;;7.10;6.00;;;4.20;99.90;;;;;;2609918;54;20423;-70
2021/12/03 19:18:54;;;;;;;8.33;7.30;;;4.20;99.90;;;;;;2610264;49;20415;-70
2021/12/03 19:21:23;;;;;;;7.77;7.03;;;4.10;99.90;;;;;;2612191;54;20370;-70
2021/12/03 19:23:58;;;;;;;9.93;6.93;;;4.10;99.90;;;;;;2627914;36;20462;-70
2021/12/03 19:26:25;;;;;;;9.53;8.23;;;4.10;99.90;;;;;;2611118;47;20856;-71
2021/12/03 19:28:52;;;;;;;10.27;6.70;;;4.10;99.90;;;;;;2610984;54;20441;-72
2021/12/03 19:31:22;;;;;;;7.17;5.90;;;4.20;99.90;;;;;;2611656;54;20435;-71
2021/12/03 19:33:48;;;;;;;8.57;7.27;;;4.20;99.90;;;;;;2612748;39;20935;-71
2021/12/03 19:36:27;;;;;;;9.37;6.73;;;4.20;99.90;;;;;;2611743;54;20431;-71
2021/12/03 19:38:58;;;;;;;10.53;6.40;;;4.20;99.90;;;;;;2611022;47;20460;-71
2021/12/03 19:44:01;;;;;;;5.60;5.07;;;4.30;99.90;;;;;;2611585;54;20921;-70
2021/12/03 19:46:33;;;;;;;6.50;5.90;;;4.40;99.90;;;;;;2612231;54;20409;-71
2021/12/03 19:51:29;;;;;;;9.47;7.30;;;4.40;99.90;;;;;;2612425;54;20960;-71
2021/12/03 19:53:59;;;;;;;7.40;6.70;;;4.30;99.90;;;;;;2611415;54;20431;-72
2021/12/03 19:56:30;;;;;;;5.97;4.40;;;4.50;99.90;;;;;;2609782;54;20546;-71
2021/12/03 19:58:58;;;;;;;28.93;6.23;;;4.40;99.90;;;;;;2611168;54;20399;-71
2021/12/03 20:01:24;;;;;;;9.40;7.37;;;4.50;99.90;;;;;;2610900;54;20468;-71
2021/12/03 20:03:53;;;;;;;8.07;6.03;;;4.50;99.90;;;;;;2612282;54;20426;-71
2021/12/03 20:06:21;;;;;;;10.03;6.43;;;4.50;99.90;;;;;;2610610;47;20450;-72
2021/12/03 20:08:51;;;;;;;9.40;6.73;;;4.60;99.90;;;;;;2610105;47;20438;-72
2021/12/03 20:11:17;;;;;;;9.23;7.40;;;4.60;99.90;;;;;;2610089;47;20998;-71
2021/12/03 20:13:46;;;;;;;9.90;6.40;;;4.70;99.90;;;;;;2610809;54;20466;-70
2021/12/03 20:16:23;;;;;;;6.57;5.00;;;4.70;99.90;;;;;;2611901;54;20383;-70
2021/12/03 20:18:54;;;;;;;4.70;4.30;;;4.60;99.90;;;;;;2629081;36;20478;-70
2021/12/03 20:21:22;;;;;;;5.77;5.23;;;4.60;99.90;;;;;;2612983;39;20819;-71
2021/12/03 20:26:33;;;;;;;7.40;6.37;;;4.60;99.90;;;;;;2609229;54;20939;-70
2021/12/03 20:31:28;;;;;;;7.87;6.23;;;4.60;99.90;;;;;;2611249;54;20951;-70
2021/12/03 20:34:03;;;;;;;7.30;6.60;;;4.70;99.90;;;;;;2611155;47;20254;-70
2021/12/03 20:39:05;;;;;;;9.03;7.47;;;4.70;99.90;;;;;;2611329;54;20399;-71
2021/12/03 20:41:37;;;;;;;6.60;6.00;;;4.70;99.90;;;;;;2610859;39;20775;-71
2021/12/03 20:44:21;;;;;;;8.73;7.83;;;4.60;99.90;;;;;;2611726;39;20811;-70
2021/12/03 20:46:57;;;;;;;7.97;6.23;;;4.60;99.90;;;;;;2609899;54;20422;-71